Wetterdaten: Woche 23.08.10 - 29.08.10 (KW34)
Datum Zeit Temp. A. Feuchte A. Luftdruck Regen Wind Richtung Taupunkt Windchill Windben
23.08.2010 00:00 20,6 C 78 % 1012,9 hPa 0,0 l/m 0,1 km/h N 16,5 C 20,6 C 2,0 km/h
23.08.2010 01:00 19,9 C 78 % 1012,3 hPa 0,0 l/m 0,0 km/h N 15,9 C 19,9 C 0,8 km/h
23.08.2010 02:00 18,9 C 80 % 1012,1 hPa 0,0 l/m 0,0 km/h N 15,4 C 18,9 C 0,0 km/h
23.08.2010 03:00 18,0 C 83 % 1011,9 hPa 0,0 l/m 0,0 km/h N 15,0 C 18,0 C 0,0 km/h
23.08.2010 04:00 17,3 C 85 % 1012,0 hPa 0,0 l/m 0,0 km/h N 14,8 C 17,3 C 0,4 km/h
23.08.2010 05:00 17,0 C 86 % 1012,0 hPa 0,0 l/m 0,0 km/h N 14,7 C 17,0 C 0,0 km/h
23.08.2010 06:00 16,8 C 87 % 1011,8 hPa 0,0 l/m 0,0 km/h N 14,6 C 16,8 C 0,0 km/h
23.08.2010 07:00 17,9 C 87 % 1011,6 hPa 0,0 l/m 0,0 km/h N 15,7 C 17,9 C 0,4 km/h
23.08.2010 08:00 19,4 C 87 % 1011,5 hPa 0,0 l/m 0,0 km/h N 17,2 C 19,4 C 1,2 km/h
23.08.2010 09:00 20,6 C 86 % 1011,6 hPa 0,0 l/m 0,1 km/h N 18,2 C 20,6 C 1,2 km/h
23.08.2010 10:00 22,6 C 79 % 1011,3 hPa 0,0 l/m 0,2 km/h N 18,8 C 22,6 C 1,6 km/h
23.08.2010 11:00 25,8 C 68 % 1010,6 hPa 0,0 l/m 0,8 km/h O 19,4 C 25,8 C 3,2 km/h
23.08.2010 12:00 27,8 C 64 % 1009,6 hPa 0,0 l/m 1,0 km/h S 20,2 C 27,8 C 5,6 km/h
23.08.2010 13:00 30,2 C 58 % 1008,6 hPa 0,0 l/m 1,7 km/h O-NO 20,9 C 30,2 C 7,2 km/h
23.08.2010 14:00 30,7 C 56 % 1007,9 hPa 0,0 l/m 2,1 km/h O 20,8 C 30,7 C 6,4 km/h
23.08.2010 15:00 31,4 C 50 % 1007,1 hPa 0,0 l/m 2,6 km/h O-SO 19,8 C 31,4 C 12,9 km/h
23.08.2010 16:00 31,0 C 49 % 1006,5 hPa 0,0 l/m 2,8 km/h O 19,1 C 31,0 C 10,9 km/h
23.08.2010 17:00 30,0 C 52 % 1005,5 hPa 0,0 l/m 2,3 km/h O 19,0 C 30,0 C 11,7 km/h
23.08.2010 18:00 28,5 C 54 % 1005,4 hPa 0,0 l/m 1,3 km/h SO 18,3 C 28,5 C 10,9 km/h
23.08.2010 19:00 26,9 C 58 % 1006,2 hPa 0,0 l/m 1,1 km/h S 17,9 C 26,9 C 8,0 km/h
23.08.2010 20:00 25,4 C 67 % 1006,5 hPa 0,3 l/m 0,4 km/h N 18,8 C 25,4 C 4,0 km/h
23.08.2010 21:00 23,7 C 75 % 1006,6 hPa 0,0 l/m 0,0 km/h N 18,9 C 23,7 C 0,0 km/h
23.08.2010 22:00 22,5 C 80 % 1006,8 hPa 0,0 l/m 0,1 km/h N 19,0 C 22,5 C 1,6 km/h
23.08.2010 23:00 22,1 C 82 % 1006,9 hPa 0,0 l/m 0,1 km/h N 18,9 C 22,1 C 1,6 km/h
24.08.2010 00:00 22,1 C 83 % 1006,7 hPa 0,0 l/m 0,1 km/h N 19,0 C 22,1 C 2,4 km/h
24.08.2010 01:00 21,8 C 84 % 1006,7 hPa 0,0 l/m 0,0 km/h N 19,0 C 21,8 C 0,4 km/h
24.08.2010 02:00 21,6 C 84 % 1006,7 hPa 0,0 l/m 0,0 km/h N 18,8 C 21,6 C 1,6 km/h
24.08.2010 03:00 21,6 C 84 % 1006,8 hPa 0,0 l/m 0,1 km/h N 18,8 C 21,6 C 1,2 km/h
24.08.2010 04:00 21,5 C 85 % 1007,2 hPa 0,5 l/m 0,0 km/h N 18,7 C 21,5 C 1,2 km/h
24.08.2010 05:00 21,0 C 85 % 1006,5 hPa 0,0 l/m 0,1 km/h N 18,4 C 21,0 C 1,6 km/h
24.08.2010 06:00 20,8 C 86 % 1006,9 hPa 0,0 l/m 0,1 km/h N 18,4 C 20,8 C 2,4 km/h
24.08.2010 07:00 20,5 C 86 % 1008,3 hPa 1,6 l/m 0,3 km/h N 18,1 C 20,5 C 3,2 km/h
24.08.2010 08:00 19,9 C 86 % 1010,0 hPa 5,7 l/m 0,3 km/h N-NW 17,4 C 19,9 C 3,2 km/h
24.08.2010 09:00 19,5 C 87 % 1010,6 hPa 3,1 l/m 1,8 km/h SW 17,3 C 19,5 C 8,9 km/h
24.08.2010 10:00 19,3 C 87 % 1010,6 hPa 1,0 l/m 0,1 km/h SW 17,1 C 19,3 C 1,2 km/h
24.08.2010 11:00 19,5 C 87 % 1010,7 hPa 0,3 l/m 1,0 km/h SW 17,3 C 19,5 C 6,8 km/h
24.08.2010 12:00 19,8 C 87 % 1010,5 hPa 0,3 l/m 0,4 km/h N 17,6 C 19,8 C 3,6 km/h
24.08.2010 13:00 20,0 C 87 % 1010,8 hPa 0,0 l/m 0,1 km/h N 17,8 C 20,0 C 2,0 km/h
24.08.2010 14:00 20,5 C 87 % 1010,5 hPa 0,3 l/m 0,1 km/h N 18,3 C 20,5 C 3,6 km/h
24.08.2010 15:00 21,3 C 87 % 1009,9 hPa 0,0 l/m 1,3 km/h S 18,9 C 21,3 C 8,9 km/h
24.08.2010 16:00 23,1 C 80 % 1009,6 hPa 0,0 l/m 3,5 km/h S-SO 19,4 C 23,1 C 12,5 km/h
24.08.2010 17:00 24,0 C 74 % 1009,4 hPa 0,0 l/m 2,2 km/h S 19,0 C 24,0 C 8,4 km/h
24.08.2010 18:00 23,4 C 77 % 1009,1 hPa 0,0 l/m 2,0 km/h S 19,2 C 23,4 C 10,1 km/h
24.08.2010 19:00 22,6 C 81 % 1009,2 hPa 0,0 l/m 0,7 km/h N 19,1 C 22,6 C 5,6 km/h
24.08.2010 20:00 21,8 C 81 % 1009,8 hPa 0,0 l/m 0,2 km/h N 18,4 C 21,8 C 3,7 km/h
24.08.2010 21:00 20,6 C 84 % 1010,6 hPa 0,0 l/m 0,0 km/h SW 17,8 C 20,6 C 3,2 km/h
24.08.2010 22:00 20,1 C 85 % 1011,0 hPa 0,0 l/m 1,6 km/h S-SW 17,5 C 20,1 C 10,5 km/h
24.08.2010 23:00 21,3 C 78 % 1011,7 hPa 0,0 l/m 3,2 km/h W-SW 17,2 C 21,3 C 16,9 km/h
25.08.2010 00:00 22,0 C 72 % 1012,6 hPa 0,0 l/m 4,8 km/h W-SW 16,7 C 22,0 C 24,1 km/h
25.08.2010 01:00 21,4 C 69 % 1013,1 hPa 0,0 l/m 5,6 km/h W-SW 15,4 C 21,4 C 22,5 km/h
25.08.2010 02:00 20,1 C 62 % 1013,7 hPa 0,0 l/m 9,7 km/h W 12,6 C 18,8 C 40,2 km/h
25.08.2010 03:00 18,8 C 62 % 1014,8 hPa 0,0 l/m 10,5 km/h NW 11,2 C 17,2 C 37,0 km/h
25.08.2010 04:00 18,0 C 63 % 1015,2 hPa 0,0 l/m 8,0 km/h NW 10,9 C 17,3 C 29,0 km/h
25.08.2010 05:00 17,6 C 66 % 1016,2 hPa 0,0 l/m 4,8 km/h N-NW 11,2 C 17,6 C 26,5 km/h
25.08.2010 06:00 16,8 C 69 % 1016,6 hPa 0,0 l/m 4,4 km/h N-NW 11,1 C 16,8 C 18,8 km/h
25.08.2010 07:00 17,0 C 70 % 1017,0 hPa 0,0 l/m 5,3 km/h N-NW 11,4 C 16,9 C 18,5 km/h
25.08.2010 08:00 17,7 C 66 % 1017,3 hPa 0,0 l/m 7,1 km/h NW 11,2 C 17,4 C 20,9 km/h
25.08.2010 09:00 18,2 C 64 % 1017,8 hPa 0,0 l/m 4,8 km/h O 11,3 C 18,2 C 17,7 km/h
25.08.2010 10:00 18,9 C 65 % 1018,1 hPa 0,0 l/m 3,3 km/h N 12,1 C 18,9 C 13,7 km/h
25.08.2010 11:00 20,5 C 56 % 1017,8 hPa 0,0 l/m 6,2 km/h N-NW 11,3 C 20,4 C 15,7 km/h
25.08.2010 12:00 21,8 C 53 % 1017,5 hPa 0,0 l/m 4,6 km/h N-NW 11,8 C 21,8 C 16,5 km/h
25.08.2010 13:00 22,6 C 52 % 1017,3 hPa 0,0 l/m 4,4 km/h N-NW 12,3 C 22,6 C 15,3 km/h
25.08.2010 14:00 24,1 C 48 % 1016,9 hPa 0,0 l/m 5,6 km/h NW 12,5 C 24,1 C 14,9 km/h
25.08.2010 15:00 24,8 C 46 % 1016,5 hPa 0,0 l/m 3,3 km/h NW 12,5 C 24,8 C 11,7 km/h
25.08.2010 16:00 25,0 C 45 % 1016,3 hPa 0,0 l/m 2,8 km/h N-NW 12,3 C 25,0 C 8,9 km/h
25.08.2010 17:00 24,6 C 48 % 1016,2 hPa 0,0 l/m 2,2 km/h S 12,7 C 24,6 C 10,1 km/h
25.08.2010 18:00 23,1 C 54 % 1016,1 hPa 0,0 l/m 1,1 km/h SW 13,3 C 23,1 C 5,6 km/h
25.08.2010 19:00 22,0 C 59 % 1016,1 hPa 0,0 l/m 1,0 km/h S-SW 13,7 C 22,0 C 5,2 km/h
25.08.2010 20:00 20,7 C 65 % 1016,6 hPa 0,0 l/m 1,0 km/h SW 14,0 C 20,7 C 6,4 km/h
25.08.2010 21:00 19,6 C 70 % 1017,1 hPa 0,0 l/m 1,1 km/h SW 14,0 C 19,6 C 6,4 km/h
25.08.2010 22:00 19,1 C 71 % 1017,3 hPa 0,0 l/m 0,6 km/h N 13,7 C 19,1 C 3,2 km/h
25.08.2010 23:00 18,3 C 73 % 1017,4 hPa 0,0 l/m 0,0 km/h N 13,4 C 18,3 C 0,0 km/h
26.08.2010 00:00 16,9 C 76 % 1017,4 hPa 0,0 l/m 0,0 km/h N 12,7 C 16,9 C 0,0 km/h
26.08.2010 01:00 15,6 C 80 % 1017,3 hPa 0,0 l/m 0,0 km/h N 12,2 C 15,6 C 0,0 km/h
26.08.2010 02:00 15,3 C 83 % 1017,2 hPa 0,0 l/m 0,0 km/h N 12,4 C 15,3 C 0,4 km/h
26.08.2010 03:00 15,3 C 84 % 1017,1 hPa 0,0 l/m 0,0 km/h N 12,6 C 15,3 C 2,0 km/h
26.08.2010 04:00 15,2 C 84 % 1017,0 hPa 0,0 l/m 0,0 km/h N 12,5 C 15,2 C 1,6 km/h
26.08.2010 05:00 15,3 C 84 % 1016,6 hPa 0,0 l/m 0,0 km/h N 12,6 C 15,3 C 0,4 km/h
26.08.2010 06:00 15,3 C 84 % 1016,9 hPa 0,0 l/m 0,0 km/h N 12,6 C 15,3 C 0,8 km/h
26.08.2010 07:00 15,5 C 85 % 1016,9 hPa 0,0 l/m 0,0 km/h N 12,9 C 15,5 C 0,4 km/h
26.08.2010 08:00 16,6 C 85 % 1016,9 hPa 0,0 l/m 0,0 km/h N 14,1 C 16,6 C 0,8 km/h
26.08.2010 09:00 18,3 C 77 % 1016,7 hPa 0,0 l/m 0,3 km/h N 14,2 C 18,3 C 5,2 km/h
26.08.2010 10:00 20,5 C 69 % 1016,3 hPa 0,0 l/m 0,9 km/h S 14,6 C 20,5 C 6,8 km/h
26.08.2010 11:00 24,0 C 62 % 1015,8 hPa 0,0 l/m 1,3 km/h S 16,2 C 24,0 C 8,0 km/h
26.08.2010 12:00 28,2 C 49 % 1015,1 hPa 0,0 l/m 1,8 km/h S-SO 16,2 C 28,2 C 7,2 km/h
26.08.2010 13:00 29,2 C 48 % 1014,3 hPa 0,0 l/m 2,3 km/h SO 16,9 C 29,2 C 8,8 km/h
26.08.2010 14:00 29,4 C 45 % 1013,3 hPa 0,0 l/m 2,8 km/h S-SO 16,3 C 29,4 C 11,3 km/h
26.08.2010 15:00 30,2 C 44 % 1012,5 hPa 0,0 l/m 4,4 km/h S 16,3 C 30,2 C 15,7 km/h
26.08.2010 16:00 30,5 C 49 % 1011,8 hPa 0,0 l/m 2,6 km/h S 18,7 C 30,5 C 12,1 km/h
26.08.2010 17:00 30,6 C 50 % 1011,2 hPa 0,0 l/m 2,6 km/h S-SO 18,9 C 30,6 C 10,1 km/h
26.08.2010 18:00 29,1 C 55 % 1010,8 hPa 0,0 l/m 0,9 km/h N 18,9 C 29,1 C 4,8 km/h
26.08.2010 19:00 27,5 C 62 % 1010,3 hPa 0,0 l/m 0,3 km/h N 19,5 C 27,5 C 2,8 km/h
26.08.2010 20:00 25,2 C 69 % 1010,3 hPa 0,0 l/m 0,0 km/h N 19,0 C 25,2 C 0,8 km/h
26.08.2010 21:00 23,0 C 75 % 1010,3 hPa 0,0 l/m 0,0 km/h N 18,4 C 23,0 C 2,4 km/h
26.08.2010 22:00 22,1 C 79 % 1009,9 hPa 0,0 l/m 0,0 km/h N 18,3 C 22,1 C 0,0 km/h
26.08.2010 23:00 21,7 C 82 % 1009,4 hPa 0,0 l/m 0,0 km/h N 18,5 C 21,7 C 0,8 km/h
27.08.2010 00:00 21,3 C 83 % 1008,8 hPa 0,0 l/m 0,0 km/h N 18,3 C 21,3 C 0,4 km/h
27.08.2010 01:00 20,5 C 83 % 1008,3 hPa 0,0 l/m 0,0 km/h N 17,6 C 20,5 C 0,0 km/h
27.08.2010 02:00 19,5 C 84 % 1007,2 hPa 0,0 l/m 0,0 km/h N 16,7 C 19,5 C 0,0 km/h
27.08.2010 03:00 18,8 C 85 % 1006,2 hPa 0,0 l/m 0,0 km/h N 16,2 C 18,8 C 0,0 km/h
27.08.2010 04:00 18,3 C 87 % 1004,9 hPa 0,0 l/m 0,0 km/h N 16,0 C 18,3 C 0,8 km/h
27.08.2010 05:00 18,4 C 87 % 1003,9 hPa 0,0 l/m 0,0 km/h N 16,1 C 18,4 C 0,0 km/h
27.08.2010 06:00 18,8 C 87 % 1005,5 hPa 0,0 l/m 1,7 km/h N-NO 16,6 C 18,8 C 8,1 km/h
27.08.2010 07:00 19,8 C 87 % 1006,7 hPa 0,0 l/m 1,9 km/h NW 17,6 C 19,8 C 7,2 km/h
27.08.2010 08:00 20,3 C 87 % 1006,4 hPa 0,0 l/m 0,1 km/h N 18,0 C 20,3 C 1,2 km/h
27.08.2010 09:00 20,5 C 87 % 1005,4 hPa 0,0 l/m 0,1 km/h S-SW 18,3 C 20,5 C 2,4 km/h
27.08.2010 10:00 21,7 C 86 % 1005,3 hPa 0,0 l/m 1,0 km/h S-SW 19,2 C 21,7 C 6,4 km/h
27.08.2010 11:00 23,2 C 82 % 1005,3 hPa 0,0 l/m 1,1 km/h S 19,9 C 23,2 C 7,6 km/h
27.08.2010 12:00 24,6 C 77 % 1005,2 hPa 0,0 l/m 0,8 km/h N 20,4 C 24,6 C 6,0 km/h
27.08.2010 13:00 25,7 C 66 % 1005,2 hPa 0,0 l/m 1,1 km/h SW 18,9 C 25,7 C 7,3 km/h
27.08.2010 14:00 26,3 C 57 % 1005,3 hPa 0,3 l/m 4,1 km/h SW 17,0 C 26,3 C 16,5 km/h
27.08.2010 15:00 23,0 C 68 % 1005,6 hPa 2,1 l/m 7,8 km/h W 16,6 C 22,5 C 30,2 km/h
27.08.2010 16:00 19,6 C 80 % 1007,0 hPa 1,0 l/m 6,0 km/h S-SW 16,1 C 19,3 C 23,7 km/h
27.08.2010 17:00 18,9 C 80 % 1007,2 hPa 0,0 l/m 2,4 km/h S-SW 15,3 C 18,9 C 10,5 km/h
27.08.2010 18:00 18,5 C 81 % 1006,7 hPa 0,5 l/m 2,0 km/h S-SW 15,1 C 18,5 C 13,7 km/h
27.08.2010 19:00 18,1 C 84 % 1006,3 hPa 0,5 l/m 0,3 km/h N 15,3 C 18,1 C 3,6 km/h
27.08.2010 20:00 17,8 C 86 % 1006,5 hPa 0,0 l/m 1,8 km/h S 15,3 C 17,8 C 8,4 km/h
27.08.2010 21:00 17,4 C 86 % 1006,7 hPa 0,0 l/m 0,5 km/h N 15,0 C 17,4 C 4,8 km/h
27.08.2010 22:00 16,9 C 86 % 1006,3 hPa 0,0 l/m 0,2 km/h S-SO 14,5 C 16,9 C 3,2 km/h
27.08.2010 23:00 17,0 C 87 % 1006,0 hPa 0,0 l/m 1,8 km/h S 14,8 C 17,0 C 8,5 km/h
28.08.2010 00:00 16,8 C 87 % 1005,8 hPa 0,0 l/m 0,1 km/h N 14,6 C 16,8 C 1,2 km/h
28.08.2010 01:00 16,8 C 87 % 1005,7 hPa 0,3 l/m 1,5 km/h N-NW 14,6 C 16,8 C 6,0 km/h
28.08.2010 02:00 16,8 C 87 % 1005,5 hPa 0,0 l/m 1,2 km/h SW 14,6 C 16,8 C 4,8 km/h
28.08.2010 03:00 16,9 C 87 % 1005,2 hPa 0,0 l/m 0,7 km/h SW 14,7 C 16,9 C 4,0 km/h
28.08.2010 04:00 17,0 C 87 % 1005,2 hPa 0,0 l/m 0,1 km/h N 14,8 C 17,0 C 3,2 km/h
28.08.2010 05:00 17,6 C 87 % 1005,4 hPa 0,0 l/m 1,5 km/h SW 15,3 C 17,6 C 11,3 km/h
28.08.2010 06:00 18,4 C 82 % 1005,9 hPa 0,0 l/m 2,8 km/h SW 15,2 C 18,4 C 14,9 km/h
28.08.2010 07:00 18,9 C 78 % 1005,8 hPa 0,0 l/m 3,0 km/h S-SO 14,9 C 18,9 C 17,3 km/h
28.08.2010 08:00 18,9 C 76 % 1006,0 hPa 0,0 l/m 2,7 km/h SW 14,6 C 18,9 C 15,3 km/h
28.08.2010 09:00 19,1 C 74 % 1006,6 hPa 0,0 l/m 3,8 km/h W-SW 14,4 C 19,1 C 20,5 km/h
28.08.2010 10:00 18,9 C 75 % 1007,6 hPa 1,6 l/m 5,3 km/h NW 14,4 C 18,8 C 17,3 km/h
28.08.2010 11:00 17,0 C 84 % 1009,0 hPa 0,8 l/m 0,6 km/h N-NW 14,3 C 17,0 C 4,4 km/h
28.08.2010 12:00 16,7 C 84 % 1009,9 hPa 0,0 l/m 3,1 km/h NW 13,9 C 16,7 C 11,7 km/h
28.08.2010 13:00 17,3 C 76 % 1010,2 hPa 0,0 l/m 4,8 km/h NW 13,0 C 17,3 C 16,9 km/h
28.08.2010 14:00 17,3 C 74 % 1010,9 hPa 0,0 l/m 6,4 km/h NW 12,6 C 17,1 C 18,1 km/h
28.08.2010 15:00 17,3 C 73 % 1011,1 hPa 0,0 l/m 7,2 km/h NW 12,3 C 16,8 C 22,1 km/h
28.08.2010 16:00 17,1 C 71 % 1011,4 hPa 0,0 l/m 8,0 km/h NW 11,7 C 16,3 C 20,5 km/h
28.08.2010 17:00 17,4 C 71 % 1011,5 hPa 0,0 l/m 6,7 km/h N-NW 12,0 C 17,0 C 17,7 km/h
28.08.2010 18:00 17,1 C 69 % 1011,8 hPa 0,0 l/m 3,3 km/h NW 11,5 C 17,1 C 10,1 km/h
28.08.2010 19:00 16,4 C 67 % 1012,1 hPa 0,0 l/m 4,3 km/h NW 10,2 C 16,4 C 14,5 km/h
28.08.2010 20:00 15,6 C 69 % 1012,8 hPa 0,0 l/m 2,9 km/h NW 10,0 C 15,6 C 8,4 km/h
28.08.2010 21:00 15,4 C 71 % 1013,6 hPa 0,0 l/m 2,8 km/h SW 10,1 C 15,4 C 10,9 km/h
28.08.2010 22:00 15,3 C 71 % 1014,3 hPa 0,0 l/m 4,0 km/h NW 10,0 C 15,3 C 17,3 km/h
28.08.2010 23:00 14,5 C 71 % 1014,7 hPa 0,0 l/m 3,3 km/h NW 9,4 C 14,5 C 9,7 km/h
29.08.2010 00:00 14,0 C 74 % 1015,1 hPa 0,0 l/m 2,7 km/h NW 9,4 C 14,0 C 12,5 km/h
29.08.2010 01:00 13,7 C 75 % 1015,3 hPa 0,0 l/m 1,4 km/h SO 9,4 C 13,7 C 9,6 km/h
29.08.2010 02:00 13,3 C 75 % 1015,2 hPa 0,0 l/m 1,1 km/h W-NW 9,0 C 13,3 C 8,9 km/h
29.08.2010 03:00 13,0 C 75 % 1015,1 hPa 0,0 l/m 1,6 km/h S-SW 8,6 C 13,0 C 10,4 km/h
29.08.2010 04:00 13,1 C 74 % 1015,2 hPa 0,0 l/m 1,1 km/h S-SW 8,6 C 13,1 C 8,9 km/h
29.08.2010 05:00 12,8 C 75 % 1015,0 hPa 0,0 l/m 1,3 km/h W-SW 8,5 C 12,8 C 8,4 km/h
29.08.2010 06:00 12,7 C 75 % 1015,4 hPa 0,0 l/m 2,4 km/h S-SW 8,4 C 12,7 C 14,5 km/h
29.08.2010 07:00 13,0 C 74 % 1015,8 hPa 0,0 l/m 2,1 km/h NW 8,5 C 13,0 C 11,7 km/h
29.08.2010 08:00 14,0 C 71 % 1015,8 hPa 0,0 l/m 3,0 km/h NW 8,9 C 14,0 C 14,9 km/h
29.08.2010 09:00 14,9 C 68 % 1015,9 hPa 0,0 l/m 4,0 km/h N-NW 9,0 C 14,9 C 17,7 km/h
29.08.2010 10:00 15,9 C 64 % 1016,0 hPa 0,0 l/m 4,9 km/h NW 9,2 C 15,9 C 17,3 km/h
29.08.2010 11:00 17,4 C 60 % 1016,0 hPa 0,0 l/m 5,5 km/h O-NO 9,6 C 17,4 C 19,7 km/h
29.08.2010 12:00 19,0 C 54 % 1015,8 hPa 0,0 l/m 5,2 km/h N-NW 9,5 C 19,0 C 20,9 km/h
29.08.2010 13:00 19,7 C 51 % 1015,6 hPa 0,0 l/m 5,3 km/h SO 9,1 C 19,7 C 20,1 km/h
29.08.2010 14:00 20,5 C 47 % 1015,0 hPa 0,0 l/m 4,7 km/h W-SW 8,8 C 20,5 C 16,9 km/h
29.08.2010 15:00 20,6 C 45 % 1014,7 hPa 0,0 l/m 5,5 km/h S-SO 8,4 C 20,6 C 20,5 km/h
29.08.2010 16:00 20,6 C 44 % 1014,2 hPa 0,0 l/m 4,7 km/h S-SW 8,0 C 20,6 C 17,7 km/h
29.08.2010 17:00 20,4 C 44 % 1014,1 hPa 0,0 l/m 3,6 km/h O-NO 7,7 C 20,4 C 14,1 km/h
29.08.2010 18:00 18,8 C 50 % 1014,0 hPa 0,0 l/m 3,5 km/h SW 8,2 C 18,8 C 11,7 km/h
29.08.2010 19:00 17,2 C 56 % 1013,8 hPa 0,0 l/m 1,9 km/h S-SO 8,3 C 17,2 C 10,1 km/h
29.08.2010 20:00 16,0 C 58 % 1013,8 hPa 0,0 l/m 0,4 km/h N 7,7 C 16,0 C 3,2 km/h
29.08.2010 21:00 14,4 C 65 % 1014,1 hPa 0,0 l/m 0,0 km/h N 7,8 C 14,4 C 1,2 km/h
29.08.2010 22:00 12,8 C 71 % 1013,9 hPa 0,0 l/m 0,0 km/h N 7,7 C 12,8 C 0,4 km/h
29.08.2010 23:00 12,4 C 75 % 1013,5 hPa 0,0 l/m 0,0 km/h N 8,0 C 12,4 C 1,6 km/h
Min-Datum _ 29.08.10 26.08.10 27.08.10 - 23.08.10 - 29.08.10 29.08.10 23.08.10
_ Min-Zeit 23:45 15:00 05:30 - 00:00 - 17:00 23:45 01:15
Minimum _ 12,3 C 41 % 1003,7 hPa - 0,0 km/h - 7,5 C 12,3 C 0,0 km/h
Max-Datum _ 23.08.10 28.08.10 25.08.10 24.08.10 25.08.10 - 23.08.10 23.08.10 25.08.10
_ Max-Zeit 15:45 02:45 10:00 08:00 03:00 - 13:15 15:45 03:30
Maximum _ 31,7 C 88 % 1018,3 hPa 5,7 l/m 11,3 km/h
NW
- 21,3 C 31,6 C 41,8 km/h
W
Durchschnitt _ 20,1 C 73 % 1011,3 hPa #20,0 l/m 2,0 km/h NW 14,7 C 20,0 C 8,7 km/h